Time;durP1;ratioP1;P1;durP2;ratioP2;P2;SDS_P1;SDS_P2;PMS_P1;PMS_P2;Temp;Humidity;BMP_temperature;BMP_pressure;BME280_temperature;BME280_humidity;BME280_pressure;Samples;Min_cycle;Max_cycle;Signal;HPM_P1;HPM_P2
2021/07/12 00:01:33;;;;;;;;;;;20.20;65.60;;;;;;493329;242;1152;-44
2021/07/12 00:03:34;;;;;;;;;;;20.20;65.60;;;;;;493324;242;1166;-44
2021/07/12 00:05:36;;;;;;;;;;;20.20;65.70;;;;;;493232;242;1054;-43
2021/07/12 00:07:37;;;;;;;;;;;20.20;65.70;;;;;;493148;242;2179;-44
2021/07/12 00:09:38;;;;;;;;;;;20.10;65.60;;;;;;493688;242;1092;-44
2021/07/12 00:11:40;;;;;;;;;;;20.10;65.70;;;;;;493179;242;1069;-44
2021/07/12 00:13:41;;;;;;;;;;;20.10;65.60;;;;;;493233;242;957;-44
2021/07/12 00:15:42;;;;;;;;;;;20.10;65.60;;;;;;493669;241;1044;-44
2021/07/12 00:17:43;;;;;;;;;;;20.20;65.70;;;;;;493155;242;1134;-44
2021/07/12 00:19:45;;;;;;;;;;;20.10;65.60;;;;;;493643;242;1111;-44
2021/07/12 00:21:46;;;;;;;;;;;20.20;65.60;;;;;;493634;242;1174;-44
2021/07/12 00:23:49;;;;;;;;;;;20.20;65.70;;;;;;493696;242;1083;-44
2021/07/12 00:25:50;;;;;;;;;;;20.10;65.60;;;;;;493663;242;1182;-44
2021/07/12 00:27:51;;;;;;;;;;;20.10;65.60;;;;;;493661;242;2124;-44
2021/07/12 00:29:53;;;;;;;;;;;20.10;65.60;;;;;;493691;242;1080;-44
2021/07/12 00:31:54;;;;;;;;;;;20.20;65.60;;;;;;493601;242;1228;-44
2021/07/12 00:33:55;;;;;;;;;;;20.10;65.50;;;;;;493370;242;1168;-44
2021/07/12 00:35:57;;;;;;;;;;;20.20;65.60;;;;;;493519;242;1100;-44
2021/07/12 00:37:58;;;;;;;;;;;20.10;65.60;;;;;;493583;242;1052;-44
2021/07/12 00:39:59;;;;;;;;;;;20.10;65.60;;;;;;493628;242;1114;-44
2021/07/12 00:42:00;;;;;;;;;;;20.10;65.70;;;;;;493304;242;1182;-44
2021/07/12 00:44:02;;;;;;;;;;;20.10;65.70;;;;;;493528;242;1063;-44
2021/07/12 00:46:03;;;;;;;;;;;20.10;65.60;;;;;;493631;242;1127;-44
2021/07/12 00:48:05;;;;;;;;;;;20.20;65.60;;;;;;493304;242;2113;-44
2021/07/12 00:50:06;;;;;;;;;;;20.20;65.60;;;;;;493663;242;1030;-44
2021/07/12 00:52:07;;;;;;;;;;;20.20;65.60;;;;;;493347;242;1157;-44
2021/07/12 00:54:08;;;;;;;;;;;20.10;65.60;;;;;;493218;242;1057;-44
2021/07/12 00:56:10;;;;;;;;;;;20.20;65.60;;;;;;493613;242;1150;-44
2021/07/12 00:58:11;;;;;;;;;;;20.10;65.60;;;;;;493702;242;1054;-44
2021/07/12 01:00:12;;;;;;;;;;;20.10;65.60;;;;;;493654;242;1194;-44
2021/07/12 01:02:14;;;;;;;;;;;20.10;65.60;;;;;;493576;242;1226;-44
2021/07/12 01:04:15;;;;;;;;;;;20.10;65.60;;;;;;493353;242;1136;-44
2021/07/12 01:06:16;;;;;;;;;;;20.20;65.60;;;;;;493658;242;1129;-44
2021/07/12 01:08:18;;;;;;;;;;;20.20;65.60;;;;;;493135;242;2198;-44
2021/07/12 01:10:19;;;;;;;;;;;20.10;65.60;;;;;;493671;242;1022;-44
2021/07/12 01:12:20;;;;;;;;;;;20.10;65.60;;;;;;493547;242;1023;-44
2021/07/12 01:14:22;;;;;;;;;;;20.10;65.60;;;;;;493125;242;1167;-44
2021/07/12 01:16:23;;;;;;;;;;;20.10;65.60;;;;;;493142;242;1033;-44
2021/07/12 01:18:24;;;;;;;;;;;20.10;65.60;;;;;;493226;242;1274;-44
2021/07/12 01:20:34;;;;;;;;;;;20.10;65.70;;;;;;493532;242;1072;-44
2021/07/12 01:22:27;;;;;;;;;;;20.10;65.70;;;;;;492551;242;2292;-44
2021/07/12 01:24:28;;;;;;;;;;;20.10;65.60;;;;;;493637;242;1122;-44
2021/07/12 01:26:30;;;;;;;;;;;20.20;65.60;;;;;;493537;242;2153;-44
2021/07/12 01:28:31;;;;;;;;;;;20.10;65.60;;;;;;493167;242;1273;-44
2021/07/12 01:30:32;;;;;;;;;;;20.20;65.60;;;;;;493217;242;1332;-44
2021/07/12 01:32:33;;;;;;;;;;;20.20;65.50;;;;;;493332;242;1226;-44
2021/07/12 01:34:35;;;;;;;;;;;20.20;65.50;;;;;;493420;242;1165;-44
2021/07/12 01:36:36;;;;;;;;;;;20.20;65.50;;;;;;493136;242;1418;-44
2021/07/12 01:38:37;;;;;;;;;;;20.20;65.50;;;;;;493203;242;1125;-44
2021/07/12 01:40:39;;;;;;;;;;;20.10;65.60;;;;;;493619;242;1109;-44
2021/07/12 01:42:40;;;;;;;;;;;20.10;65.60;;;;;;493571;242;1163;-44
2021/07/12 01:44:41;;;;;;;;;;;20.10;65.50;;;;;;493461;242;1570;-44
2021/07/12 01:46:43;;;;;;;;;;;20.10;65.60;;;;;;493365;242;2179;-44
2021/07/12 01:48:44;;;;;;;;;;;20.20;65.70;;;;;;493211;242;1153;-44
2021/07/12 01:50:45;;;;;;;;;;;20.10;65.70;;;;;;493605;242;1105;-44
2021/07/12 01:52:47;;;;;;;;;;;20.20;65.60;;;;;;493153;242;1148;-44
2021/07/12 01:54:48;;;;;;;;;;;20.10;65.50;;;;;;493637;242;1045;-44
2021/07/12 01:56:49;;;;;;;;;;;20.20;65.60;;;;;;493275;242;1171;-44
2021/07/12 01:58:51;;;;;;;;;;;20.20;65.60;;;;;;493245;242;1047;-44
2021/07/12 02:00:52;;;;;;;;;;;20.20;65.60;;;;;;493679;242;1041;-44
2021/07/12 02:02:53;;;;;;;;;;;20.20;65.60;;;;;;493520;242;1152;-44
2021/07/12 02:04:55;;;;;;;;;;;20.10;65.60;;;;;;493141;242;1197;-44
2021/07/12 02:06:56;;;;;;;;;;;20.10;65.60;;;;;;493083;242;2179;-44
2021/07/12 02:08:57;;;;;;;;;;;20.20;65.60;;;;;;493379;242;1074;-44
2021/07/12 02:10:59;;;;;;;;;;;20.10;65.70;;;;;;493159;242;1272;-44
2021/07/12 02:13:00;;;;;;;;;;;20.10;65.60;;;;;;493531;242;1232;-44
2021/07/12 02:15:01;;;;;;;;;;;20.10;65.50;;;;;;493641;242;1049;-44
2021/07/12 02:17:03;;;;;;;;;;;20.10;65.60;;;;;;493165;242;1305;-44
2021/07/12 02:19:04;;;;;;;;;;;20.10;65.50;;;;;;493342;242;1153;-44
2021/07/12 02:21:06;;;;;;;;;;;20.10;65.60;;;;;;493586;242;1194;-44
2021/07/12 02:23:07;;;;;;;;;;;20.20;65.50;;;;;;493086;242;2665;-44
2021/07/12 02:25:08;;;;;;;;;;;20.20;65.60;;;;;;493204;242;1051;-44
2021/07/12 02:27:09;;;;;;;;;;;20.20;65.60;;;;;;493106;242;2199;-44
2021/07/12 02:29:11;;;;;;;;;;;20.10;65.40;;;;;;493150;242;1074;-44
2021/07/12 02:31:12;;;;;;;;;;;20.10;65.50;;;;;;493524;242;1125;-44
2021/07/12 02:33:13;;;;;;;;;;;20.10;65.70;;;;;;493172;242;1075;-44
2021/07/12 02:35:15;;;;;;;;;;;20.10;65.60;;;;;;493423;242;1137;-44
2021/07/12 02:37:16;;;;;;;;;;;20.10;65.60;;;;;;493488;242;1083;-44
2021/07/12 02:39:17;;;;;;;;;;;20.10;65.60;;;;;;493375;242;1087;-44
2021/07/12 02:41:18;;;;;;;;;;;20.10;65.60;;;;;;493156;242;1062;-44
2021/07/12 02:43:20;;;;;;;;;;;20.10;65.70;;;;;;493141;242;1042;-44
2021/07/12 02:45:21;;;;;;;;;;;20.10;65.60;;;;;;493521;242;1027;-44
2021/07/12 02:47:23;;;;;;;;;;;20.10;65.60;;;;;;493337;242;2143;-44
2021/07/12 02:49:24;;;;;;;;;;;20.10;65.60;;;;;;493218;237;1226;-44
2021/07/12 02:51:25;;;;;;;;;;;20.10;65.50;;;;;;493718;242;1056;-44
2021/07/12 02:53:27;;;;;;;;;;;20.10;65.50;;;;;;493670;242;1076;-44
2021/07/12 02:55:28;;;;;;;;;;;20.10;65.50;;;;;;493252;242;1431;-44
2021/07/12 02:57:29;;;;;;;;;;;20.10;65.60;;;;;;493136;242;1186;-44
2021/07/12 02:59:31;;;;;;;;;;;20.10;65.60;;;;;;493666;242;1083;-44
2021/07/12 03:01:32;;;;;;;;;;;20.10;65.60;;;;;;493579;242;1124;-44
2021/07/12 03:03:33;;;;;;;;;;;20.10;65.60;;;;;;493453;242;1212;-44
2021/07/12 03:05:35;;;;;;;;;;;20.10;65.70;;;;;;493385;242;1176;-44
2021/07/12 03:07:36;;;;;;;;;;;20.10;65.60;;;;;;493534;242;2136;-43
2021/07/12 03:09:37;;;;;;;;;;;20.10;65.50;;;;;;493370;242;999;-43
2021/07/12 03:11:39;;;;;;;;;;;20.10;65.50;;;;;;493448;242;1171;-44
2021/07/12 03:13:40;;;;;;;;;;;20.10;65.50;;;;;;493318;242;1451;-44
2021/07/12 03:15:41;;;;;;;;;;;20.10;65.50;;;;;;493643;242;1421;-44
2021/07/12 03:17:42;;;;;;;;;;;20.10;65.50;;;;;;493230;242;1550;-44
2021/07/12 03:19:44;;;;;;;;;;;20.10;65.50;;;;;;493224;242;1249;-43
2021/07/12 03:21:46;;;;;;;;;;;20.10;65.60;;;;;;493543;242;1308;-44
2021/07/12 03:23:47;;;;;;;;;;;20.10;65.60;;;;;;493188;242;1062;-44
2021/07/12 03:25:48;;;;;;;;;;;20.10;65.60;;;;;;493636;242;1127;-44
2021/07/12 03:27:50;;;;;;;;;;;20.10;65.60;;;;;;493161;242;2204;-44
2021/07/12 03:29:51;;;;;;;;;;;20.10;65.50;;;;;;493201;242;1163;-44
2021/07/12 03:31:52;;;;;;;;;;;20.20;65.50;;;;;;493362;242;1177;-44
2021/07/12 03:33:54;;;;;;;;;;;20.20;65.50;;;;;;493181;242;998;-43
2021/07/12 03:35:55;;;;;;;;;;;20.20;65.60;;;;;;493332;242;1240;-44
2021/07/12 03:37:56;;;;;;;;;;;20.10;65.50;;;;;;493121;242;1195;-44
2021/07/12 03:39:58;;;;;;;;;;;20.10;65.60;;;;;;493660;242;1033;-44
2021/07/12 03:41:59;;;;;;;;;;;20.20;65.60;;;;;;493380;242;1153;-44
2021/07/12 03:44:01;;;;;;;;;;;20.10;65.50;;;;;;493189;242;1197;-44
2021/07/12 03:46:02;;;;;;;;;;;20.10;65.60;;;;;;493142;242;1113;-44
2021/07/12 03:48:03;;;;;;;;;;;20.10;65.60;;;;;;493211;242;2187;-44
2021/07/12 03:50:05;;;;;;;;;;;20.10;65.60;;;;;;493393;242;1150;-44
2021/07/12 03:52:06;;;;;;;;;;;20.10;65.60;;;;;;493208;242;1369;-44
2021/07/12 03:54:07;;;;;;;;;;;20.10;65.60;;;;;;493208;242;1037;-44
2021/07/12 03:56:09;;;;;;;;;;;20.10;65.60;;;;;;493176;242;1049;-44
2021/07/12 03:58:10;;;;;;;;;;;20.10;65.60;;;;;;493251;242;1076;-44
2021/07/12 04:00:11;;;;;;;;;;;20.10;65.60;;;;;;493623;242;1074;-44
2021/07/12 04:02:12;;;;;;;;;;;20.10;65.50;;;;;;493636;242;1068;-44
2021/07/12 04:04:14;;;;;;;;;;;20.10;65.50;;;;;;493423;242;1139;-44
2021/07/12 04:06:15;;;;;;;;;;;20.20;65.50;;;;;;493310;242;1565;-44
2021/07/12 04:08:17;;;;;;;;;;;20.10;65.50;;;;;;493327;242;2191;-44
2021/07/12 04:10:19;;;;;;;;;;;20.10;65.50;;;;;;493125;242;1071;-44
2021/07/12 04:12:23;;;;;;;;;;;20.10;65.60;;;;;;493349;242;2403;-43
2021/07/12 04:14:24;;;;;;;;;;;20.10;65.50;;;;;;493175;242;1101;-44
2021/07/12 04:16:26;;;;;;;;;;;20.10;65.50;;;;;;493396;242;1197;-44
2021/07/12 04:18:27;;;;;;;;;;;20.10;65.50;;;;;;493245;242;1239;-44
2021/07/12 04:20:28;;;;;;;;;;;20.10;65.60;;;;;;493451;242;1313;-44
2021/07/12 04:22:29;;;;;;;;;;;20.20;65.50;;;;;;493399;242;1644;-44
2021/07/12 04:24:31;;;;;;;;;;;20.20;65.50;;;;;;493514;242;1073;-44
2021/07/12 04:26:32;;;;;;;;;;;20.20;65.40;;;;;;493009;242;1339;-44
2021/07/12 04:28:33;;;;;;;;;;;20.20;65.40;;;;;;493079;242;2199;-44
2021/07/12 04:30:35;;;;;;;;;;;20.20;65.40;;;;;;493037;242;1406;-44
2021/07/12 04:32:36;;;;;;;;;;;20.20;65.40;;;;;;493458;242;1142;-44
2021/07/12 04:34:38;;;;;;;;;;;20.20;65.40;;;;;;492983;242;1219;-44
2021/07/12 04:36:39;;;;;;;;;;;20.20;65.50;;;;;;493203;242;1559;-44
2021/07/12 04:38:40;;;;;;;;;;;20.20;65.50;;;;;;493340;242;1407;-44
2021/07/12 04:40:42;;;;;;;;;;;20.10;65.50;;;;;;493419;238;1106;-44
2021/07/12 04:42:43;;;;;;;;;;;20.10;65.50;;;;;;493119;242;1223;-44
2021/07/12 04:44:44;;;;;;;;;;;20.10;65.50;;;;;;493134;242;1065;-44
2021/07/12 04:46:46;;;;;;;;;;;20.10;65.60;;;;;;492887;242;1511;-44
2021/07/12 04:48:47;;;;;;;;;;;20.10;65.60;;;;;;493429;242;2211;-44
2021/07/12 04:50:48;;;;;;;;;;;20.10;65.50;;;;;;493011;242;1264;-44
2021/07/12 04:52:50;;;;;;;;;;;20.10;65.50;;;;;;493017;242;1193;-44
2021/07/12 04:54:51;;;;;;;;;;;20.10;65.60;;;;;;493084;242;1047;-44
2021/07/12 04:56:52;;;;;;;;;;;20.10;65.50;;;;;;493124;242;1324;-44
2021/07/12 04:58:55;;;;;;;;;;;20.10;65.50;;;;;;493466;242;1065;-44
2021/07/12 05:00:57;;;;;;;;;;;20.10;65.50;;;;;;492844;242;2326;-43
2021/07/12 05:02:56;;;;;;;;;;;20.10;65.50;;;;;;492974;241;2195;-44
2021/07/12 05:04:58;;;;;;;;;;;20.10;65.50;;;;;;493113;242;1067;-44
2021/07/12 05:06:59;;;;;;;;;;;20.10;65.50;;;;;;492970;242;1296;-44
2021/07/12 05:09:00;;;;;;;;;;;20.10;65.50;;;;;;493014;242;2139;-44
2021/07/12 05:11:01;;;;;;;;;;;20.10;65.50;;;;;;493065;242;1260;-44
2021/07/12 05:13:03;;;;;;;;;;;20.10;65.50;;;;;;493338;242;1159;-44
2021/07/12 05:15:04;;;;;;;;;;;20.10;65.50;;;;;;493350;242;1055;-44
2021/07/12 05:17:05;;;;;;;;;;;20.10;65.40;;;;;;493405;242;1219;-44
2021/07/12 05:19:07;;;;;;;;;;;20.10;65.50;;;;;;493272;242;1061;-44
2021/07/12 05:21:08;;;;;;;;;;;20.10;65.50;;;;;;493239;238;1335;-44
2021/07/12 05:23:09;;;;;;;;;;;20.10;65.50;;;;;;493060;242;1130;-44
2021/07/12 05:25:11;;;;;;;;;;;20.10;65.50;;;;;;492824;242;1037;-44
2021/07/12 05:27:12;;;;;;;;;;;20.10;65.70;;;;;;493148;242;1142;-44
2021/07/12 05:29:13;;;;;;;;;;;20.10;65.50;;;;;;493434;242;2191;-43
2021/07/12 05:31:15;;;;;;;;;;;20.10;65.50;;;;;;492898;242;1380;-44
2021/07/12 05:33:16;;;;;;;;;;;20.10;65.50;;;;;;492895;242;1072;-44
2021/07/12 05:35:17;;;;;;;;;;;20.10;65.60;;;;;;492876;242;1030;-44
2021/07/12 05:37:19;;;;;;;;;;;20.10;65.60;;;;;;492826;242;1236;-44
2021/07/12 05:39:20;;;;;;;;;;;20.10;65.60;;;;;;492890;242;1059;-44
2021/07/12 05:41:21;;;;;;;;;;;20.10;65.70;;;;;;492841;242;1108;-43
2021/07/12 05:43:22;;;;;;;;;;;20.10;65.60;;;;;;492881;242;1139;-44
2021/07/12 05:45:24;;;;;;;;;;;20.10;65.50;;;;;;492836;242;1160;-44
2021/07/12 05:47:25;;;;;;;;;;;20.10;65.50;;;;;;492796;242;1265;-44
2021/07/12 05:49:26;;;;;;;;;;;20.10;65.40;;;;;;492920;242;2192;-44
2021/07/12 05:51:28;;;;;;;;;;;20.10;65.50;;;;;;492775;242;1276;-44
2021/07/12 05:53:29;;;;;;;;;;;20.10;65.50;;;;;;492855;242;1082;-44
2021/07/12 05:55:30;;;;;;;;;;;20.10;65.50;;;;;;492895;242;1256;-44
2021/07/12 05:57:32;;;;;;;;;;;20.10;65.40;;;;;;492788;242;1195;-44
2021/07/12 05:59:33;;;;;;;;;;;20.10;65.50;;;;;;493006;242;1137;-44
2021/07/12 06:01:34;;;;;;;;;;;20.10;65.50;;;;;;492742;242;1079;-44
2021/07/12 06:03:36;;;;;;;;;;;20.10;65.50;;;;;;492773;242;1082;-43
2021/07/12 06:05:37;;;;;;;;;;;20.10;65.50;;;;;;492953;242;1225;-44
2021/07/12 06:07:39;;;;;;;;;;;20.10;65.50;;;;;;492769;242;1280;-44
2021/07/12 06:09:40;;;;;;;;;;;20.10;65.50;;;;;;492843;242;2191;-44
2021/07/12 06:11:41;;;;;;;;;;;20.10;65.60;;;;;;492703;242;1443;-44
2021/07/12 06:13:43;;;;;;;;;;;20.10;65.50;;;;;;492837;242;1080;-44
2021/07/12 06:15:44;;;;;;;;;;;20.10;65.50;;;;;;493257;242;1164;-44
2021/07/12 06:17:45;;;;;;;;;;;20.10;65.50;;;;;;492456;242;1356;-44
2021/07/12 06:19:47;;;;;;;;;;;20.10;65.40;;;;;;492574;241;1364;-44
2021/07/12 06:21:48;;;;;;;;;;;20.10;65.40;;;;;;492550;242;1314;-44
2021/07/12 06:23:49;;;;;;;;;;;20.10;65.50;;;;;;492543;242;1205;-44
2021/07/12 06:25:50;;;;;;;;;;;20.10;65.50;;;;;;492448;242;1102;-44
2021/07/12 06:27:52;;;;;;;;;;;20.10;65.50;;;;;;492266;242;1345;-44
2021/07/12 06:29:53;;;;;;;;;;;20.10;65.50;;;;;;492423;242;2200;-44
2021/07/12 06:31:55;;;;;;;;;;;20.10;65.50;;;;;;492520;241;1312;-44
2021/07/12 06:33:56;;;;;;;;;;;20.10;65.40;;;;;;492374;242;2123;-44
2021/07/12 06:35:57;;;;;;;;;;;20.10;65.60;;;;;;492620;242;1531;-43
2021/07/12 06:37:58;;;;;;;;;;;20.10;65.60;;;;;;492363;242;1213;-44
2021/07/12 06:40:00;;;;;;;;;;;20.10;65.40;;;;;;492174;242;1093;-44
2021/07/12 06:42:01;;;;;;;;;;;20.10;65.40;;;;;;492259;242;1210;-44
2021/07/12 06:44:02;;;;;;;;;;;20.10;65.40;;;;;;492352;242;1104;-44
2021/07/12 06:46:04;;;;;;;;;;;20.10;65.50;;;;;;492416;241;1523;-44
2021/07/12 06:48:05;;;;;;;;;;;20.10;65.50;;;;;;492346;242;1106;-44
2021/07/12 06:50:06;;;;;;;;;;;20.10;65.50;;;;;;492235;242;2188;-44
2021/07/12 06:52:08;;;;;;;;;;;20.10;65.60;;;;;;492244;242;1510;-44
2021/07/12 06:54:09;;;;;;;;;;;20.10;65.50;;;;;;492197;242;1206;-44
2021/07/12 06:56:10;;;;;;;;;;;20.10;65.50;;;;;;492338;242;1425;-44
2021/07/12 06:58:12;;;;;;;;;;;20.10;65.40;;;;;;492420;242;1125;-44
2021/07/12 07:00:13;;;;;;;;;;;20.10;65.50;;;;;;492216;242;2216;-44
2021/07/12 07:02:15;;;;;;;;;;;20.10;65.40;;;;;;492166;242;1320;-44
2021/07/12 07:04:16;;;;;;;;;;;20.10;65.40;;;;;;492100;242;2087;-44
2021/07/12 07:06:17;;;;;;;;;;;20.10;65.40;;;;;;492206;242;1312;-44
2021/07/12 07:08:18;;;;;;;;;;;20.10;65.50;;;;;;492267;242;1322;-44
2021/07/12 07:10:20;;;;;;;;;;;20.10;65.50;;;;;;492399;242;2172;-44
2021/07/12 07:12:21;;;;;;;;;;;20.10;65.50;;;;;;492516;242;1355;-44
2021/07/12 07:14:22;;;;;;;;;;;20.10;65.50;;;;;;492773;242;1059;-44
2021/07/12 07:16:23;;;;;;;;;;;20.10;65.50;;;;;;492290;242;1862;-44
2021/07/12 07:18:25;;;;;;;;;;;20.20;65.40;;;;;;492286;242;1213;-44
2021/07/12 07:20:26;;;;;;;;;;;20.20;65.40;;;;;;492388;242;1103;-44
2021/07/12 07:22:27;;;;;;;;;;;20.10;65.40;;;;;;492721;242;1182;-44
2021/07/12 07:24:29;;;;;;;;;;;20.10;65.40;;;;;;493093;242;899;-44
2021/07/12 07:26:30;;;;;;;;;;;20.10;65.40;;;;;;493022;242;1163;-44
2021/07/12 07:28:31;;;;;;;;;;;20.10;65.40;;;;;;492859;242;1068;-44
2021/07/12 07:30:35;;;;;;;;;;;20.10;65.50;;;;;;492037;242;2198;-44
2021/07/12 07:32:34;;;;;;;;;;;20.10;65.50;;;;;;492077;242;2076;-44
2021/07/12 07:34:35;;;;;;;;;;;20.10;65.50;;;;;;492338;242;1162;-44
2021/07/12 07:36:38;;;;;;;;;;;20.10;65.50;;;;;;492097;242;1380;-44
2021/07/12 07:38:38;;;;;;;;;;;20.10;65.50;;;;;;492207;242;2161;-44
2021/07/12 07:40:39;;;;;;;;;;;20.10;65.50;;;;;;492281;242;1362;-44
2021/07/12 07:42:41;;;;;;;;;;;20.10;65.50;;;;;;492523;242;1217;-44
2021/07/12 07:44:42;;;;;;;;;;;20.10;65.60;;;;;;492175;242;1132;-44
2021/07/12 07:46:44;;;;;;;;;;;20.10;65.50;;;;;;492130;242;1202;-44
2021/07/12 07:48:45;;;;;;;;;;;20.10;65.40;;;;;;492002;242;2211;-44
2021/07/12 07:50:46;;;;;;;;;;;20.10;65.40;;;;;;492068;242;1132;-44
2021/07/12 07:52:47;;;;;;;;;;;20.10;65.50;;;;;;491985;242;1214;-44
2021/07/12 07:54:50;;;;;;;;;;;20.10;65.40;;;;;;492309;242;1109;-43
2021/07/12 07:56:50;;;;;;;;;;;20.10;65.50;;;;;;492210;242;2121;-44
2021/07/12 07:58:52;;;;;;;;;;;20.10;65.50;;;;;;492208;242;1239;-43
2021/07/12 08:00:53;;;;;;;;;;;20.10;65.50;;;;;;492396;242;1134;-44
2021/07/12 08:02:54;;;;;;;;;;;20.10;65.40;;;;;;492311;242;1227;-44
2021/07/12 08:04:55;;;;;;;;;;;20.10;65.40;;;;;;492404;242;1127;-44
2021/07/12 08:06:57;;;;;;;;;;;20.10;65.40;;;;;;492227;242;1378;-44
2021/07/12 08:08:58;;;;;;;;;;;20.10;65.40;;;;;;492171;242;2191;-44
2021/07/12 08:10:59;;;;;;;;;;;20.10;65.30;;;;;;492288;242;1324;-44
2021/07/12 08:13:01;;;;;;;;;;;20.10;65.30;;;;;;492248;242;1216;-44
2021/07/12 08:15:02;;;;;;;;;;;20.20;65.40;;;;;;492484;242;1171;-44
2021/07/12 08:17:04;;;;;;;;;;;20.20;65.30;;;;;;492257;242;1252;-44
2021/07/12 08:19:05;;;;;;;;;;;20.20;65.40;;;;;;492278;242;1124;-44
2021/07/12 08:21:08;;;;;;;;;;;20.10;65.30;;;;;;492299;242;1208;-44
2021/07/12 08:23:08;;;;;;;;;;;20.10;65.30;;;;;;493035;242;2178;-44
2021/07/12 08:25:09;;;;;;;;;;;20.10;65.30;;;;;;492645;242;1064;-44
2021/07/12 08:27:11;;;;;;;;;;;20.20;65.40;;;;;;492398;242;1247;-44
2021/07/12 08:29:12;;;;;;;;;;;20.10;65.30;;;;;;492283;242;2196;-44
2021/07/12 08:31:13;;;;;;;;;;;20.20;65.40;;;;;;492191;242;1308;-44
2021/07/12 08:33:15;;;;;;;;;;;20.20;65.40;;;;;;492237;242;1114;-44
2021/07/12 08:35:16;;;;;;;;;;;20.10;65.30;;;;;;492254;242;1168;-44
2021/07/12 08:37:18;;;;;;;;;;;20.10;65.40;;;;;;492277;242;1118;-44
2021/07/12 08:39:20;;;;;;;;;;;20.10;65.30;;;;;;492271;242;1214;-44
2021/07/12 08:41:21;;;;;;;;;;;20.10;65.40;;;;;;492514;242;1443;-44
2021/07/12 08:43:23;;;;;;;;;;;20.10;65.40;;;;;;492633;242;1161;-44
2021/07/12 08:45:24;;;;;;;;;;;20.20;65.30;;;;;;492450;242;1062;-44
2021/07/12 08:47:25;;;;;;;;;;;20.20;65.30;;;;;;492330;242;1166;-44
2021/07/12 08:49:27;;;;;;;;;;;20.20;65.40;;;;;;492289;242;2195;-44
2021/07/12 08:51:28;;;;;;;;;;;20.10;65.30;;;;;;492473;242;1301;-44
2021/07/12 08:53:29;;;;;;;;;;;20.10;65.30;;;;;;492123;242;1451;-44
2021/07/12 08:55:31;;;;;;;;;;;20.20;65.30;;;;;;492247;242;1383;-44
2021/07/12 08:57:32;;;;;;;;;;;20.20;65.40;;;;;;492823;242;1263;-44
2021/07/12 08:59:35;;;;;;;;;;;20.20;65.30;;;;;;492911;242;697;-44
2021/07/12 09:01:35;;;;;;;;;;;20.20;65.30;;;;;;492116;242;2616;-44
2021/07/12 09:03:36;;;;;;;;;;;20.20;65.40;;;;;;492767;242;993;-44
2021/07/12 09:05:37;;;;;;;;;;;20.20;65.30;;;;;;492150;242;1436;-44
2021/07/12 09:07:38;;;;;;;;;;;20.20;65.20;;;;;;492064;242;1328;-44
2021/07/12 09:09:40;;;;;;;;;;;20.20;65.30;;;;;;492089;242;2171;-44
2021/07/12 09:11:43;;;;;;;;;;;20.20;65.40;;;;;;492075;242;1397;-44
2021/07/12 09:13:43;;;;;;;;;;;20.20;65.30;;;;;;492298;242;2267;-44
2021/07/12 09:15:44;;;;;;;;;;;20.20;65.30;;;;;;492438;242;1454;-43
2021/07/12 09:17:46;;;;;;;;;;;20.20;65.40;;;;;;492157;242;1240;-44
2021/07/12 09:19:47;;;;;;;;;;;20.10;65.30;;;;;;492138;242;1070;-44
2021/07/12 09:21:48;;;;;;;;;;;20.20;65.30;;;;;;492150;242;1215;-44
2021/07/12 09:23:50;;;;;;;;;;;20.20;65.30;;;;;;492173;242;1492;-44
2021/07/12 09:25:51;;;;;;;;;;;20.20;65.30;;;;;;492359;242;1098;-44
2021/07/12 09:27:52;;;;;;;;;;;20.20;65.20;;;;;;492035;242;1384;-44
2021/07/12 09:29:54;;;;;;;;;;;20.20;65.30;;;;;;491950;242;2192;-44
2021/07/12 09:31:55;;;;;;;;;;;20.20;65.30;;;;;;491936;242;1203;-44
2021/07/12 09:33:56;;;;;;;;;;;20.20;65.30;;;;;;492022;242;1214;-44
2021/07/12 09:35:58;;;;;;;;;;;20.20;65.20;;;;;;492010;242;1484;-44
2021/07/12 09:37:59;;;;;;;;;;;20.20;65.30;;;;;;492217;242;1200;-44
2021/07/12 09:40:00;;;;;;;;;;;20.20;65.40;;;;;;492355;242;1151;-44
2021/07/12 09:42:02;;;;;;;;;;;20.20;65.20;;;;;;492010;242;1187;-44
2021/07/12 09:44:03;;;;;;;;;;;20.20;65.10;;;;;;492114;242;1194;-44
2021/07/12 09:46:04;;;;;;;;;;;20.30;65.00;;;;;;492132;242;1444;-44
2021/07/12 09:48:06;;;;;;;;;;;20.20;65.00;;;;;;492171;242;1106;-44
2021/07/12 09:50:08;;;;;;;;;;;20.20;65.00;;;;;;492240;242;2144;-44
2021/07/12 09:52:08;;;;;;;;;;;20.30;65.00;;;;;;492650;241;1423;-44
2021/07/12 09:54:10;;;;;;;;;;;20.30;65.00;;;;;;492330;242;1078;-44
2021/07/12 09:56:17;;;;;;;;;;;20.30;65.00;;;;;;492770;242;1083;-44
2021/07/12 09:58:13;;;;;;;;;;;20.30;65.00;;;;;;491931;242;1371;-44
2021/07/12 10:00:16;;;;;;;;;;;20.30;65.00;;;;;;492343;242;1097;-44
2021/07/12 10:02:16;;;;;;;;;;;20.30;65.10;;;;;;492359;242;1799;-44
2021/07/12 10:04:17;;;;;;;;;;;20.30;65.10;;;;;;492447;242;1061;-44
2021/07/12 10:06:19;;;;;;;;;;;20.30;65.00;;;;;;492288;242;1431;-44
2021/07/12 10:08:20;;;;;;;;;;;20.30;65.10;;;;;;492026;242;1535;-44
2021/07/12 10:10:21;;;;;;;;;;;20.30;65.10;;;;;;492124;242;2207;-44
2021/07/12 10:12:22;;;;;;;;;;;20.30;65.00;;;;;;492145;242;1199;-44
2021/07/12 10:14:24;;;;;;;;;;;20.20;65.00;;;;;;492242;242;1123;-44
2021/07/12 10:16:25;;;;;;;;;;;20.20;65.00;;;;;;492161;242;1229;-44
2021/07/12 10:18:27;;;;;;;;;;;20.20;65.10;;;;;;492336;242;1099;-44
2021/07/12 10:20:28;;;;;;;;;;;20.20;65.10;;;;;;492296;241;2384;-44
2021/07/12 10:22:29;;;;;;;;;;;20.20;65.10;;;;;;492200;242;1099;-44
2021/07/12 10:24:30;;;;;;;;;;;20.20;65.20;;;;;;492362;242;1223;-44
2021/07/12 10:26:32;;;;;;;;;;;20.20;65.20;;;;;;492433;242;1195;-44
2021/07/12 10:28:33;;;;;;;;;;;20.20;65.20;;;;;;492507;242;875;-44
2021/07/12 10:30:34;;;;;;;;;;;20.20;65.20;;;;;;492522;242;2187;-44
2021/07/12 10:32:36;;;;;;;;;;;20.20;65.30;;;;;;492092;242;1177;-44
2021/07/12 10:34:37;;;;;;;;;;;20.10;65.30;;;;;;492131;242;1127;-44
2021/07/12 10:36:38;;;;;;;;;;;20.20;65.30;;;;;;492003;242;1370;-44
2021/07/12 10:38:40;;;;;;;;;;;20.20;65.30;;;;;;492201;242;1234;-44
2021/07/12 10:40:41;;;;;;;;;;;20.20;65.20;;;;;;492166;242;2038;-44
2021/07/12 10:42:42;;;;;;;;;;;20.20;65.20;;;;;;492534;242;1083;-43
2021/07/12 10:44:44;;;;;;;;;;;20.20;65.10;;;;;;492189;242;1146;-44
2021/07/12 10:46:46;;;;;;;;;;;20.20;65.20;;;;;;492446;242;1324;-43
2021/07/12 10:48:47;;;;;;;;;;;20.20;65.20;;;;;;492374;241;2373;-44
2021/07/12 10:50:48;;;;;;;;;;;20.20;65.20;;;;;;492254;242;2194;-43
2021/07/12 10:52:50;;;;;;;;;;;20.20;65.20;;;;;;492565;242;1227;-44
2021/07/12 10:54:51;;;;;;;;;;;20.20;65.20;;;;;;492669;242;2260;-43
2021/07/12 10:56:54;;;;;;;;;;;20.20;65.20;;;;;;493048;242;1117;-43
2021/07/12 10:58:54;;;;;;;;;;;20.20;65.20;;;;;;492659;242;1334;-44
2021/07/12 11:00:56;;;;;;;;;;;20.20;65.20;;;;;;492937;242;1172;-43
2021/07/12 11:02:57;;;;;;;;;;;20.20;65.10;;;;;;492932;242;1108;-43
2021/07/12 11:04:58;;;;;;;;;;;20.20;65.10;;;;;;492864;242;848;-44
2021/07/12 11:07:00;;;;;;;;;;;20.20;65.20;;;;;;492482;242;1183;-44
2021/07/12 11:09:01;;;;;;;;;;;20.20;65.30;;;;;;492656;242;849;-43
2021/07/12 11:11:02;;;;;;;;;;;20.20;65.40;;;;;;492576;242;2238;-43
2021/07/12 11:13:04;;;;;;;;;;;20.20;65.20;;;;;;493120;242;1076;-44
2021/07/12 11:15:05;;;;;;;;;;;20.20;65.30;;;;;;492600;242;856;-44
2021/07/12 11:17:06;;;;;;;;;;;20.20;65.20;;;;;;493043;242;1257;-44
2021/07/12 11:19:07;;;;;;;;;;;20.20;65.20;;;;;;492493;242;1207;-43
2021/07/12 11:21:10;;;;;;;;;;;20.20;65.10;;;;;;493192;242;1092;-44
2021/07/12 11:23:11;;;;;;;;;;;20.20;65.20;;;;;;492542;242;1563;-44
2021/07/12 11:25:12;;;;;;;;;;;20.20;65.30;;;;;;493003;242;1081;-43
2021/07/12 11:27:13;;;;;;;;;;;20.20;65.30;;;;;;492640;242;1070;-44
2021/07/12 11:29:14;;;;;;;;;;;20.20;65.20;;;;;;492675;242;898;-44
2021/07/12 11:31:16;;;;;;;;;;;20.20;65.20;;;;;;493081;242;2191;-43
2021/07/12 11:33:17;;;;;;;;;;;20.20;65.30;;;;;;492585;242;912;-43
2021/07/12 11:35:18;;;;;;;;;;;20.20;65.30;;;;;;492999;242;847;-43
2021/07/12 11:37:20;;;;;;;;;;;20.20;65.30;;;;;;492386;242;1102;-44
2021/07/12 11:39:21;;;;;;;;;;;20.20;65.30;;;;;;492296;242;1196;-43
2021/07/12 11:41:22;;;;;;;;;;;20.20;65.30;;;;;;492238;242;1244;-43
2021/07/12 11:43:24;;;;;;;;;;;20.20;65.20;;;;;;492089;242;1603;-44
2021/07/12 11:45:25;;;;;;;;;;;20.10;65.20;;;;;;492214;242;1279;-44
2021/07/12 11:47:26;;;;;;;;;;;20.20;65.40;;;;;;493030;242;1331;-44
2021/07/12 11:49:28;;;;;;;;;;;20.20;65.40;;;;;;492156;242;1324;-43
2021/07/12 11:51:29;;;;;;;;;;;20.20;65.30;;;;;;492498;242;2183;-44
2021/07/12 11:53:30;;;;;;;;;;;20.20;65.30;;;;;;492308;242;1094;-43
2021/07/12 11:55:32;;;;;;;;;;;20.20;65.40;;;;;;492200;242;1251;-43
2021/07/12 11:57:33;;;;;;;;;;;20.20;65.40;;;;;;492995;242;1087;-43